Current Weather

El Centro Naf (Vraciu Fld)

El Centro, California (KNJK)

Report from: Sunday, June 26, 2022 9:56 AM PDT
Current time: Sunday, June 26, 2022 10:45 AM PDT

Nearby weather
Weather history
Weather forecast

Temperature35.0°C (95.0°F)
Heat index39.3°C (102.7°F)
Dew point21.7°C (71.1°F)
Winds 6 kts (3.1 m/s, 6.9 mph) South-Southeast (150°)
Visibility10 mi. (16.1 km)
Clouds Sky clear
Altimeter29.93 in.Hg (1014 mB)
Relative humidity46 %
Density altitude2,609 ft. (795 m)
Sea-level pressure101.5 kPa (1015 mB, 29.97 in.Hg)
Remarks Fully automated report
System requires maintenance
Automated weather observing station with precipitation discriminator
Flight conditions Visual Meteorological Conditions
Raw dataKNJK 261656Z AUTO 15006KT 10SM CLR 35/22 A2993 RMK AO2 SLP149 T03500217 $
An error has occurred. This application may no longer respond until reloaded. Reload 🗙